sensor_id;sensor_type;location;lat;lon;timestamp;temperature;humidity
46890;DHT22;32625;51.080;16.970;2022-12-05T00:03:54;3.30;99.90
46890;DHT22;32625;51.080;16.970;2022-12-05T00:06:22;3.30;99.90
46890;DHT22;32625;51.080;16.970;2022-12-05T00:08:50;3.20;99.90
46890;DHT22;32625;51.080;16.970;2022-12-05T00:11:20;3.30;99.90
46890;DHT22;32625;51.080;16.970;2022-12-05T00:13:47;3.30;99.90
46890;DHT22;32625;51.080;16.970;2022-12-05T00:16:17;3.30;99.90
46890;DHT22;32625;51.080;16.970;2022-12-05T00:18:45;3.20;99.90
46890;DHT22;32625;51.080;16.970;2022-12-05T00:21:17;3.30;99.90
46890;DHT22;32625;51.080;16.970;2022-12-05T00:23:45;3.20;99.90
46890;DHT22;32625;51.080;16.970;2022-12-05T00:26:12;3.30;99.90
46890;DHT22;32625;51.080;16.970;2022-12-05T00:28:39;3.30;99.90
46890;DHT22;32625;51.080;16.970;2022-12-05T00:31:10;3.30;99.90
46890;DHT22;32625;51.080;16.970;2022-12-05T00:33:37;3.30;99.90
46890;DHT22;32625;51.080;16.970;2022-12-05T00:36:11;3.20;99.90
46890;DHT22;32625;51.080;16.970;2022-12-05T00:38:39;3.20;99.90
46890;DHT22;32625;51.080;16.970;2022-12-05T00:41:08;3.20;99.90
46890;DHT22;32625;51.080;16.970;2022-12-05T00:43:36;3.20;99.90
46890;DHT22;32625;51.080;16.970;2022-12-05T00:46:05;3.30;99.90
46890;DHT22;32625;51.080;16.970;2022-12-05T00:48:33;3.30;99.90
46890;DHT22;32625;51.080;16.970;2022-12-05T00:51:23;3.30;99.90
46890;DHT22;32625;51.080;16.970;2022-12-05T00:53:53;3.30;99.90
46890;DHT22;32625;51.080;16.970;2022-12-05T00:56:23;3.30;99.90
46890;DHT22;32625;51.080;16.970;2022-12-05T00:58:52;3.30;99.90
46890;DHT22;32625;51.080;16.970;2022-12-05T01:01:32;3.30;99.90
46890;DHT22;32625;51.080;16.970;2022-12-05T01:04:08;3.30;99.90
46890;DHT22;32625;51.080;16.970;2022-12-05T01:06:37;3.30;99.90
46890;DHT22;32625;51.080;16.970;2022-12-05T01:09:05;3.30;99.90
46890;DHT22;32625;51.080;16.970;2022-12-05T01:11:33;3.30;99.90
46890;DHT22;32625;51.080;16.970;2022-12-05T01:14:08;3.30;99.90
46890;DHT22;32625;51.080;16.970;2022-12-05T01:16:37;3.30;99.90
46890;DHT22;32625;51.080;16.970;2022-12-05T01:19:27;3.30;99.90
46890;DHT22;32625;51.080;16.970;2022-12-05T01:21:54;3.30;99.90
46890;DHT22;32625;51.080;16.970;2022-12-05T01:24:22;3.30;99.90
46890;DHT22;32625;51.080;16.970;2022-12-05T01:26:50;3.30;99.90
46890;DHT22;32625;51.080;16.970;2022-12-05T01:29:20;3.30;99.90
46890;DHT22;32625;51.080;16.970;2022-12-05T01:31:48;3.30;99.90
46890;DHT22;32625;51.080;16.970;2022-12-05T01:34:16;3.30;99.90
46890;DHT22;32625;51.080;16.970;2022-12-05T01:36:44;3.30;99.90
46890;DHT22;32625;51.080;16.970;2022-12-05T01:39:12;3.30;99.90
46890;DHT22;32625;51.080;16.970;2022-12-05T01:41:43;3.30;99.90
46890;DHT22;32625;51.080;16.970;2022-12-05T01:46:49;3.30;99.90
46890;DHT22;32625;51.080;16.970;2022-12-05T01:49:46;3.30;99.90
46890;DHT22;32625;51.080;16.970;2022-12-05T01:52:17;3.40;99.90
46890;DHT22;32625;51.080;16.970;2022-12-05T01:54:47;3.30;99.90
46890;DHT22;32625;51.080;16.970;2022-12-05T01:57:16;3.30;99.90
46890;DHT22;32625;51.080;16.970;2022-12-05T01:59:47;3.30;99.90
46890;DHT22;32625;51.080;16.970;2022-12-05T02:02:16;3.30;99.90
46890;DHT22;32625;51.080;16.970;2022-12-05T02:05:17;3.30;99.90
46890;DHT22;32625;51.080;16.970;2022-12-05T02:07:46;3.40;99.90
46890;DHT22;32625;51.080;16.970;2022-12-05T02:10:14;3.40;99.90
46890;DHT22;32625;51.080;16.970;2022-12-05T02:12:42;3.40;99.90
46890;DHT22;32625;51.080;16.970;2022-12-05T02:32:14;3.30;99.90
46890;DHT22;32625;51.080;16.970;2022-12-05T02:34:55;3.30;99.90
46890;DHT22;32625;51.080;16.970;2022-12-05T02:37:47;3.40;99.90
46890;DHT22;32625;51.080;16.970;2022-12-05T02:40:25;3.20;99.90
46890;DHT22;32625;51.080;16.970;2022-12-05T02:43:07;3.20;99.90
46890;DHT22;32625;51.080;16.970;2022-12-05T02:45:37;3.20;99.90
46890;DHT22;32625;51.080;16.970;2022-12-05T02:48:06;3.20;99.90
46890;DHT22;32625;51.080;16.970;2022-12-05T02:50:35;3.20;99.90
46890;DHT22;32625;51.080;16.970;2022-12-05T02:53:07;3.30;99.90
46890;DHT22;32625;51.080;16.970;2022-12-05T02:55:38;3.20;99.90
46890;DHT22;32625;51.080;16.970;2022-12-05T02:58:16;3.30;99.90
46890;DHT22;32625;51.080;16.970;2022-12-05T03:00:48;3.30;99.90
46890;DHT22;32625;51.080;16.970;2022-12-05T03:03:18;3.30;99.90
46890;DHT22;32625;51.080;16.970;2022-12-05T03:06:02;3.20;99.90
46890;DHT22;32625;51.080;16.970;2022-12-05T03:08:43;3.20;99.90
46890;DHT22;32625;51.080;16.970;2022-12-05T03:11:12;3.20;99.90
46890;DHT22;32625;51.080;16.970;2022-12-05T03:13:47;3.20;99.90
46890;DHT22;32625;51.080;16.970;2022-12-05T03:16:40;3.30;99.90
46890;DHT22;32625;51.080;16.970;2022-12-05T03:19:17;3.30;99.90
46890;DHT22;32625;51.080;16.970;2022-12-05T03:22:00;3.20;99.90
46890;DHT22;32625;51.080;16.970;2022-12-05T03:24:29;3.20;99.90
46890;DHT22;32625;51.080;16.970;2022-12-05T03:27:06;3.20;99.90
46890;DHT22;32625;51.080;16.970;2022-12-05T03:29:57;3.30;99.90
46890;DHT22;32625;51.080;16.970;2022-12-05T03:35:28;3.30;99.90
46890;DHT22;32625;51.080;16.970;2022-12-05T03:38:02;3.20;99.90
46890;DHT22;32625;51.080;16.970;2022-12-05T03:43:32;3.20;99.90
46890;DHT22;32625;51.080;16.970;2022-12-05T03:51:07;3.30;99.90
46890;DHT22;32625;51.080;16.970;2022-12-05T03:53:50;3.30;99.90
46890;DHT22;32625;51.080;16.970;2022-12-05T03:56:24;3.20;99.90
46890;DHT22;32625;51.080;16.970;2022-12-05T03:59:29;3.10;99.90
46890;DHT22;32625;51.080;16.970;2022-12-05T04:01:59;3.20;99.90
46890;DHT22;32625;51.080;16.970;2022-12-05T04:04:39;3.20;99.90
46890;DHT22;32625;51.080;16.970;2022-12-05T04:07:12;3.20;99.90
46890;DHT22;32625;51.080;16.970;2022-12-05T04:09:48;3.20;99.90
46890;DHT22;32625;51.080;16.970;2022-12-05T04:12:21;3.20;99.90
46890;DHT22;32625;51.080;16.970;2022-12-05T04:14:52;3.20;99.90
46890;DHT22;32625;51.080;16.970;2022-12-05T04:20:35;3.20;99.90
46890;DHT22;32625;51.080;16.970;2022-12-05T04:23:22;3.20;99.90
46890;DHT22;32625;51.080;16.970;2022-12-05T04:26:12;3.20;99.90
46890;DHT22;32625;51.080;16.970;2022-12-05T04:31:20;3.20;99.90
46890;DHT22;32625;51.080;16.970;2022-12-05T04:33:52;3.20;99.90
46890;DHT22;32625;51.080;16.970;2022-12-05T04:39:08;3.20;99.90
46890;DHT22;32625;51.080;16.970;2022-12-05T04:41:50;3.20;99.90
46890;DHT22;32625;51.080;16.970;2022-12-05T04:44:22;3.20;99.90
46890;DHT22;32625;51.080;16.970;2022-12-05T04:46:52;3.20;99.90
46890;DHT22;32625;51.080;16.970;2022-12-05T04:49:23;3.20;99.90
46890;DHT22;32625;51.080;16.970;2022-12-05T04:51:54;3.20;99.90
46890;DHT22;32625;51.080;16.970;2022-12-05T04:54:33;3.10;99.90
46890;DHT22;32625;51.080;16.970;2022-12-05T04:57:21;3.10;99.90
46890;DHT22;32625;51.080;16.970;2022-12-05T04:59:51;3.10;99.90
46890;DHT22;32625;51.080;16.970;2022-12-05T05:02:23;3.10;99.90
46890;DHT22;32625;51.080;16.970;2022-12-05T05:04:57;3.10;99.90
46890;DHT22;32625;51.080;16.970;2022-12-05T05:07:25;3.10;99.90
46890;DHT22;32625;51.080;16.970;2022-12-05T05:09:53;3.10;99.90
46890;DHT22;32625;51.080;16.970;2022-12-05T05:12:21;3.10;99.90
46890;DHT22;32625;51.080;16.970;2022-12-05T05:14:48;3.20;99.90
46890;DHT22;32625;51.080;16.970;2022-12-05T05:17:15;3.10;99.90
46890;DHT22;32625;51.080;16.970;2022-12-05T05:19:42;3.10;99.90
46890;DHT22;32625;51.080;16.970;2022-12-05T05:22:09;3.10;99.90
46890;DHT22;32625;51.080;16.970;2022-12-05T05:24:37;3.10;99.90
46890;DHT22;32625;51.080;16.970;2022-12-05T05:27:04;3.10;99.90
46890;DHT22;32625;51.080;16.970;2022-12-05T05:29:31;3.10;99.90
46890;DHT22;32625;51.080;16.970;2022-12-05T05:31:58;3.10;99.90
46890;DHT22;32625;51.080;16.970;2022-12-05T05:34:25;3.10;99.90
46890;DHT22;32625;51.080;16.970;2022-12-05T05:36:54;3.20;99.90
46890;DHT22;32625;51.080;16.970;2022-12-05T05:39:21;3.10;99.90
46890;DHT22;32625;51.080;16.970;2022-12-05T05:41:48;3.10;99.90
46890;DHT22;32625;51.080;16.970;2022-12-05T05:44:16;3.10;99.90
46890;DHT22;32625;51.080;16.970;2022-12-05T05:46:43;3.10;99.90
46890;DHT22;32625;51.080;16.970;2022-12-05T05:49:10;3.10;99.90
46890;DHT22;32625;51.080;16.970;2022-12-05T05:51:37;3.10;99.90
46890;DHT22;32625;51.080;16.970;2022-12-05T05:54:04;3.10;99.90
46890;DHT22;32625;51.080;16.970;2022-12-05T05:56:32;3.10;99.90
46890;DHT22;32625;51.080;16.970;2022-12-05T05:59:01;3.00;99.90
46890;DHT22;32625;51.080;16.970;2022-12-05T06:01:29;3.10;99.90
46890;DHT22;32625;51.080;16.970;2022-12-05T06:03:57;3.10;99.90
46890;DHT22;32625;51.080;16.970;2022-12-05T06:06:24;3.10;99.90
46890;DHT22;32625;51.080;16.970;2022-12-05T06:08:52;3.10;99.90
46890;DHT22;32625;51.080;16.970;2022-12-05T06:11:25;3.10;99.90
46890;DHT22;32625;51.080;16.970;2022-12-05T06:13:57;3.10;99.90
46890;DHT22;32625;51.080;16.970;2022-12-05T06:16:28;3.10;99.90
46890;DHT22;32625;51.080;16.970;2022-12-05T06:18:56;3.10;99.90
46890;DHT22;32625;51.080;16.970;2022-12-05T06:21:23;3.10;99.90
46890;DHT22;32625;51.080;16.970;2022-12-05T06:23:51;3.10;99.90
46890;DHT22;32625;51.080;16.970;2022-12-05T06:26:20;3.00;99.90
46890;DHT22;32625;51.080;16.970;2022-12-05T06:28:48;3.10;99.90
46890;DHT22;32625;51.080;16.970;2022-12-05T06:31:18;3.10;99.90
46890;DHT22;32625;51.080;16.970;2022-12-05T06:33:46;3.10;99.90
46890;DHT22;32625;51.080;16.970;2022-12-05T06:36:16;3.10;99.90
46890;DHT22;32625;51.080;16.970;2022-12-05T06:38:43;3.00;99.90
46890;DHT22;32625;51.080;16.970;2022-12-05T06:41:14;3.10;99.90
46890;DHT22;32625;51.080;16.970;2022-12-05T06:43:42;3.10;99.90
46890;DHT22;32625;51.080;16.970;2022-12-05T06:46:10;3.00;99.90
46890;DHT22;32625;51.080;16.970;2022-12-05T06:48:38;3.00;99.90
46890;DHT22;32625;51.080;16.970;2022-12-05T06:51:08;3.10;99.90
46890;DHT22;32625;51.080;16.970;2022-12-05T06:53:37;3.10;99.90
46890;DHT22;32625;51.080;16.970;2022-12-05T06:56:06;3.10;99.90
46890;DHT22;32625;51.080;16.970;2022-12-05T06:58:34;3.20;99.90
46890;DHT22;32625;51.080;16.970;2022-12-05T07:01:01;3.10;99.90
46890;DHT22;32625;51.080;16.970;2022-12-05T07:03:50;3.10;99.90
46890;DHT22;32625;51.080;16.970;2022-12-05T07:06:17;3.10;99.90
46890;DHT22;32625;51.080;16.970;2022-12-05T07:08:44;3.10;99.90
46890;DHT22;32625;51.080;16.970;2022-12-05T07:11:11;3.10;99.90
46890;DHT22;32625;51.080;16.970;2022-12-05T07:13:38;3.10;99.90
46890;DHT22;32625;51.080;16.970;2022-12-05T07:16:06;3.10;99.90
46890;DHT22;32625;51.080;16.970;2022-12-05T07:18:34;3.10;99.90
46890;DHT22;32625;51.080;16.970;2022-12-05T07:21:05;3.10;99.90
46890;DHT22;32625;51.080;16.970;2022-12-05T07:23:43;3.20;99.90
46890;DHT22;32625;51.080;16.970;2022-12-05T07:26:13;3.20;99.90
46890;DHT22;32625;51.080;16.970;2022-12-05T07:28:41;3.20;99.90
46890;DHT22;32625;51.080;16.970;2022-12-05T07:31:13;3.10;99.90
46890;DHT22;32625;51.080;16.970;2022-12-05T07:33:41;3.20;99.90
46890;DHT22;32625;51.080;16.970;2022-12-05T07:36:11;3.20;99.90
46890;DHT22;32625;51.080;16.970;2022-12-05T07:38:39;3.20;99.90
46890;DHT22;32625;51.080;16.970;2022-12-05T07:41:08;3.20;99.90
46890;DHT22;32625;51.080;16.970;2022-12-05T07:43:40;3.30;99.90
46890;DHT22;32625;51.080;16.970;2022-12-05T07:46:08;3.30;99.90
46890;DHT22;32625;51.080;16.970;2022-12-05T07:48:38;3.20;99.90
46890;DHT22;32625;51.080;16.970;2022-12-05T07:51:07;3.30;99.90
46890;DHT22;32625;51.080;16.970;2022-12-05T07:53:35;3.30;99.90
46890;DHT22;32625;51.080;16.970;2022-12-05T07:56:05;3.30;99.90
46890;DHT22;32625;51.080;16.970;2022-12-05T07:58:33;3.30;99.90
46890;DHT22;32625;51.080;16.970;2022-12-05T08:01:12;3.30;99.90
46890;DHT22;32625;51.080;16.970;2022-12-05T08:03:40;3.40;99.90
46890;DHT22;32625;51.080;16.970;2022-12-05T08:06:10;3.40;99.90
46890;DHT22;32625;51.080;16.970;2022-12-05T08:08:38;3.40;99.90
46890;DHT22;32625;51.080;16.970;2022-12-05T08:11:17;3.40;99.90
46890;DHT22;32625;51.080;16.970;2022-12-05T08:13:45;3.40;99.90
46890;DHT22;32625;51.080;16.970;2022-12-05T08:16:15;3.40;99.90
46890;DHT22;32625;51.080;16.970;2022-12-05T08:18:43;3.40;99.90
46890;DHT22;32625;51.080;16.970;2022-12-05T08:21:13;3.40;99.90
46890;DHT22;32625;51.080;16.970;2022-12-05T08:23:41;3.50;99.90
46890;DHT22;32625;51.080;16.970;2022-12-05T08:26:17;3.50;99.90
46890;DHT22;32625;51.080;16.970;2022-12-05T08:28:50;3.50;99.90
46890;DHT22;32625;51.080;16.970;2022-12-05T08:31:19;3.50;99.90
46890;DHT22;32625;51.080;16.970;2022-12-05T08:33:51;3.50;99.90
46890;DHT22;32625;51.080;16.970;2022-12-05T08:36:24;3.40;99.90
46890;DHT22;32625;51.080;16.970;2022-12-05T08:39:00;3.40;99.90
46890;DHT22;32625;51.080;16.970;2022-12-05T08:41:28;3.50;99.90
46890;DHT22;32625;51.080;16.970;2022-12-05T08:43:58;3.50;99.90
46890;DHT22;32625;51.080;16.970;2022-12-05T08:46:25;3.40;99.90
46890;DHT22;32625;51.080;16.970;2022-12-05T08:48:53;3.40;99.90
46890;DHT22;32625;51.080;16.970;2022-12-05T08:51:20;3.50;99.90
46890;DHT22;32625;51.080;16.970;2022-12-05T08:53:47;3.50;99.90
46890;DHT22;32625;51.080;16.970;2022-12-05T08:56:15;3.50;99.90
46890;DHT22;32625;51.080;16.970;2022-12-05T08:58:43;3.50;99.90
46890;DHT22;32625;51.080;16.970;2022-12-05T09:01:20;3.50;99.90
46890;DHT22;32625;51.080;16.970;2022-12-05T09:03:48;3.50;99.90
46890;DHT22;32625;51.080;16.970;2022-12-05T09:06:16;3.60;99.90
46890;DHT22;32625;51.080;16.970;2022-12-05T09:08:44;3.60;99.90
46890;DHT22;32625;51.080;16.970;2022-12-05T09:11:20;3.50;99.90
46890;DHT22;32625;51.080;16.970;2022-12-05T09:13:51;3.60;99.90
46890;DHT22;32625;51.080;16.970;2022-12-05T09:16:21;3.60;99.90
46890;DHT22;32625;51.080;16.970;2022-12-05T09:18:49;3.70;99.90
46890;DHT22;32625;51.080;16.970;2022-12-05T09:21:19;3.70;99.90
46890;DHT22;32625;51.080;16.970;2022-12-05T09:23:47;3.70;99.90
46890;DHT22;32625;51.080;16.970;2022-12-05T09:26:18;3.60;99.90
46890;DHT22;32625;51.080;16.970;2022-12-05T09:28:46;3.70;99.90
46890;DHT22;32625;51.080;16.970;2022-12-05T09:31:18;3.70;99.90
46890;DHT22;32625;51.080;16.970;2022-12-05T09:33:48;3.70;99.90
46890;DHT22;32625;51.080;16.970;2022-12-05T09:36:20;3.70;99.90
46890;DHT22;32625;51.080;16.970;2022-12-05T09:38:47;3.70;99.90
46890;DHT22;32625;51.080;16.970;2022-12-05T09:43:59;3.70;99.90
46890;DHT22;32625;51.080;16.970;2022-12-05T09:49:17;3.70;99.90
46890;DHT22;32625;51.080;16.970;2022-12-05T09:51:45;3.80;99.90
46890;DHT22;32625;51.080;16.970;2022-12-05T09:54:21;3.80;99.90
46890;DHT22;32625;51.080;16.970;2022-12-05T09:56:50;3.80;99.90
46890;DHT22;32625;51.080;16.970;2022-12-05T09:59:19;3.80;99.90
46890;DHT22;32625;51.080;16.970;2022-12-05T10:15:47;4.00;99.90
46890;DHT22;32625;51.080;16.970;2022-12-05T10:21:04;4.00;99.90
46890;DHT22;32625;51.080;16.970;2022-12-05T10:23:52;4.00;99.90
46890;DHT22;32625;51.080;16.970;2022-12-05T10:26:45;4.00;99.90
46890;DHT22;32625;51.080;16.970;2022-12-05T10:32:10;4.10;99.90
46890;DHT22;32625;51.080;16.970;2022-12-05T10:34:41;4.10;99.90
46890;DHT22;32625;51.080;16.970;2022-12-05T10:37:30;4.10;99.90
46890;DHT22;32625;51.080;16.970;2022-12-05T10:39:57;4.10;99.90
46890;DHT22;32625;51.080;16.970;2022-12-05T10:42:28;4.10;99.90
46890;DHT22;32625;51.080;16.970;2022-12-05T10:45:04;3.70;99.90
46890;DHT22;32625;51.080;16.970;2022-12-05T10:47:31;4.20;99.90
46890;DHT22;32625;51.080;16.970;2022-12-05T10:50:20;4.10;99.90
46890;DHT22;32625;51.080;16.970;2022-12-05T10:52:50;4.10;99.90
46890;DHT22;32625;51.080;16.970;2022-12-05T10:55:18;4.10;99.90
46890;DHT22;32625;51.080;16.970;2022-12-05T10:57:51;4.10;99.90
46890;DHT22;32625;51.080;16.970;2022-12-05T11:00:22;4.10;99.90
46890;DHT22;32625;51.080;16.970;2022-12-05T11:02:50;4.20;99.90
46890;DHT22;32625;51.080;16.970;2022-12-05T11:05:27;4.20;99.90
46890;DHT22;32625;51.080;16.970;2022-12-05T11:07:56;4.20;99.90
46890;DHT22;32625;51.080;16.970;2022-12-05T11:12:59;4.20;99.90
46890;DHT22;32625;51.080;16.970;2022-12-05T11:15:30;4.30;99.90
46890;DHT22;32625;51.080;16.970;2022-12-05T11:18:26;4.20;99.90
46890;DHT22;32625;51.080;16.970;2022-12-05T11:20:56;4.20;99.90
46890;DHT22;32625;51.080;16.970;2022-12-05T11:23:33;4.30;99.90
46890;DHT22;32625;51.080;16.970;2022-12-05T11:26:01;4.30;99.90
46890;DHT22;32625;51.080;16.970;2022-12-05T11:28:35;4.30;99.90
46890;DHT22;32625;51.080;16.970;2022-12-05T11:31:18;4.30;99.90
46890;DHT22;32625;51.080;16.970;2022-12-05T11:36:52;4.20;99.90
46890;DHT22;32625;51.080;16.970;2022-12-05T11:39:20;4.30;99.90
46890;DHT22;32625;51.080;16.970;2022-12-05T11:55:44;4.30;99.90
46890;DHT22;32625;51.080;16.970;2022-12-05T12:01:25;4.30;99.90
46890;DHT22;32625;51.080;16.970;2022-12-05T12:12:38;4.40;99.90
46890;DHT22;32625;51.080;16.970;2022-12-05T12:51:52;4.60;99.90
46890;DHT22;32625;51.080;16.970;2022-12-05T12:57:28;4.60;99.90
46890;DHT22;32625;51.080;16.970;2022-12-05T13:00:02;4.60;99.90
46890;DHT22;32625;51.080;16.970;2022-12-05T13:03:10;4.60;99.90
46890;DHT22;32625;51.080;16.970;2022-12-05T13:05:43;4.60;99.90
46890;DHT22;32625;51.080;16.970;2022-12-05T13:10:42;4.60;99.90
46890;DHT22;32625;51.080;16.970;2022-12-05T13:13:47;4.60;99.90
46890;DHT22;32625;51.080;16.970;2022-12-05T13:16:07;4.60;99.90
46890;DHT22;32625;51.080;16.970;2022-12-05T13:18:35;4.60;99.90
46890;DHT22;32625;51.080;16.970;2022-12-05T13:21:05;4.60;99.90
46890;DHT22;32625;51.080;16.970;2022-12-05T13:23:42;4.60;99.90
46890;DHT22;32625;51.080;16.970;2022-12-05T13:26:11;4.20;99.90
46890;DHT22;32625;51.080;16.970;2022-12-05T13:28:57;4.60;99.90
46890;DHT22;32625;51.080;16.970;2022-12-05T13:31:43;4.60;99.90
46890;DHT22;32625;51.080;16.970;2022-12-05T13:34:42;4.60;99.90
46890;DHT22;32625;51.080;16.970;2022-12-05T13:37:30;4.60;99.90
46890;DHT22;32625;51.080;16.970;2022-12-05T13:40:34;4.60;99.90
46890;DHT22;32625;51.080;16.970;2022-12-05T13:43:26;4.50;99.90
46890;DHT22;32625;51.080;16.970;2022-12-05T13:46:01;4.60;99.90
46890;DHT22;32625;51.080;16.970;2022-12-05T13:48:31;4.60;99.90
46890;DHT22;32625;51.080;16.970;2022-12-05T13:51:38;4.60;99.90
46890;DHT22;32625;51.080;16.970;2022-12-05T13:54:14;4.60;99.90
46890;DHT22;32625;51.080;16.970;2022-12-05T13:56:56;4.50;99.90
46890;DHT22;32625;51.080;16.970;2022-12-05T14:07:54;4.60;99.90
46890;DHT22;32625;51.080;16.970;2022-12-05T14:19:05;4.60;99.90
46890;DHT22;32625;51.080;16.970;2022-12-05T14:24:37;4.60;99.90
46890;DHT22;32625;51.080;16.970;2022-12-05T14:33:21;4.60;99.90
46890;DHT22;32625;51.080;16.970;2022-12-05T14:35:50;4.60;99.90
46890;DHT22;32625;51.080;16.970;2022-12-05T14:40:48;4.60;99.90
46890;DHT22;32625;51.080;16.970;2022-12-05T14:48:32;4.60;99.90
46890;DHT22;32625;51.080;16.970;2022-12-05T14:51:00;4.60;99.90
46890;DHT22;32625;51.080;16.970;2022-12-05T14:56:08;4.60;99.90
46890;DHT22;32625;51.080;16.970;2022-12-05T15:07:03;4.70;99.90
46890;DHT22;32625;51.080;16.970;2022-12-05T15:12:42;4.70;99.90
46890;DHT22;32625;51.080;16.970;2022-12-05T15:21:01;4.70;99.90
46890;DHT22;32625;51.080;16.970;2022-12-05T15:23:47;4.70;99.90
46890;DHT22;32625;51.080;16.970;2022-12-05T15:29:23;4.60;99.90
46890;DHT22;32625;51.080;16.970;2022-12-05T15:37:31;4.70;99.90
46890;DHT22;32625;51.080;16.970;2022-12-05T15:40:16;4.70;99.90
46890;DHT22;32625;51.080;16.970;2022-12-05T15:42:51;4.70;99.90
46890;DHT22;32625;51.080;16.970;2022-12-05T15:45:20;4.70;99.90
46890;DHT22;32625;51.080;16.970;2022-12-05T15:47:54;4.70;99.90
46890;DHT22;32625;51.080;16.970;2022-12-05T15:50:39;4.70;99.90
46890;DHT22;32625;51.080;16.970;2022-12-05T15:55:47;4.70;99.90
46890;DHT22;32625;51.080;16.970;2022-12-05T15:58:26;4.70;99.90
46890;DHT22;32625;51.080;16.970;2022-12-05T16:00:59;4.70;99.90
46890;DHT22;32625;51.080;16.970;2022-12-05T16:06:28;4.70;99.90
46890;DHT22;32625;51.080;16.970;2022-12-05T16:08:58;4.70;99.90
46890;DHT22;32625;51.080;16.970;2022-12-05T16:11:26;4.70;99.90
46890;DHT22;32625;51.080;16.970;2022-12-05T16:13:59;4.70;99.90
46890;DHT22;32625;51.080;16.970;2022-12-05T16:16:30;4.60;99.90
46890;DHT22;32625;51.080;16.970;2022-12-05T16:19:05;4.70;99.90
46890;DHT22;32625;51.080;16.970;2022-12-05T16:21:44;4.70;99.90
46890;DHT22;32625;51.080;16.970;2022-12-05T16:24:25;4.70;99.90
46890;DHT22;32625;51.080;16.970;2022-12-05T16:27:02;4.70;99.90
46890;DHT22;32625;51.080;16.970;2022-12-05T16:29:32;4.70;99.90
46890;DHT22;32625;51.080;16.970;2022-12-05T16:32:02;4.70;99.90
46890;DHT22;32625;51.080;16.970;2022-12-05T16:34:32;4.70;99.90
46890;DHT22;32625;51.080;16.970;2022-12-05T16:37:00;4.70;99.90
46890;DHT22;32625;51.080;16.970;2022-12-05T16:39:27;4.70;99.90
46890;DHT22;32625;51.080;16.970;2022-12-05T16:41:55;4.80;99.90
46890;DHT22;32625;51.080;16.970;2022-12-05T16:47:23;4.80;99.90
46890;DHT22;32625;51.080;16.970;2022-12-05T16:49:51;4.70;99.90
46890;DHT22;32625;51.080;16.970;2022-12-05T16:52:18;4.70;99.90
46890;DHT22;32625;51.080;16.970;2022-12-05T16:54:46;4.80;99.90
46890;DHT22;32625;51.080;16.970;2022-12-05T16:57:18;4.80;99.90
46890;DHT22;32625;51.080;16.970;2022-12-05T16:59:45;4.80;99.90
46890;DHT22;32625;51.080;16.970;2022-12-05T17:02:18;4.80;99.90
46890;DHT22;32625;51.080;16.970;2022-12-05T17:04:45;4.70;99.90
46890;DHT22;32625;51.080;16.970;2022-12-05T17:07:13;4.80;99.90
46890;DHT22;32625;51.080;16.970;2022-12-05T17:09:40;4.80;99.90
46890;DHT22;32625;51.080;16.970;2022-12-05T17:12:15;4.70;99.90
46890;DHT22;32625;51.080;16.970;2022-12-05T17:14:45;4.80;99.90
46890;DHT22;32625;51.080;16.970;2022-12-05T17:17:13;4.80;99.90
46890;DHT22;32625;51.080;16.970;2022-12-05T17:19:41;4.80;99.90
46890;DHT22;32625;51.080;16.970;2022-12-05T17:22:11;4.70;99.90
46890;DHT22;32625;51.080;16.970;2022-12-05T17:24:38;4.70;99.90
46890;DHT22;32625;51.080;16.970;2022-12-05T17:27:09;4.70;99.90
46890;DHT22;32625;51.080;16.970;2022-12-05T17:29:37;4.80;99.90
46890;DHT22;32625;51.080;16.970;2022-12-05T17:32:09;4.80;99.90
46890;DHT22;32625;51.080;16.970;2022-12-05T17:34:37;4.80;99.90
46890;DHT22;32625;51.080;16.970;2022-12-05T17:37:04;4.80;99.90
46890;DHT22;32625;51.080;16.970;2022-12-05T17:39:31;4.80;99.90
46890;DHT22;32625;51.080;16.970;2022-12-05T17:41:58;4.80;99.90
46890;DHT22;32625;51.080;16.970;2022-12-05T17:44:25;4.80;99.90
46890;DHT22;32625;51.080;16.970;2022-12-05T17:46:53;4.80;99.90
46890;DHT22;32625;51.080;16.970;2022-12-05T17:49:20;4.80;99.90
46890;DHT22;32625;51.080;16.970;2022-12-05T17:51:48;4.80;99.90
46890;DHT22;32625;51.080;16.970;2022-12-05T17:54:39;4.80;99.90
46890;DHT22;32625;51.080;16.970;2022-12-05T17:57:06;4.80;99.90
46890;DHT22;32625;51.080;16.970;2022-12-05T17:59:35;4.80;99.90
46890;DHT22;32625;51.080;16.970;2022-12-05T18:02:04;4.80;99.90
46890;DHT22;32625;51.080;16.970;2022-12-05T18:04:31;4.70;99.90
46890;DHT22;32625;51.080;16.970;2022-12-05T18:06:58;4.80;99.90
46890;DHT22;32625;51.080;16.970;2022-12-05T18:09:26;4.80;99.90
46890;DHT22;32625;51.080;16.970;2022-12-05T18:11:53;4.80;99.90
46890;DHT22;32625;51.080;16.970;2022-12-05T18:14:22;4.80;99.90
46890;DHT22;32625;51.080;16.970;2022-12-05T18:16:49;4.90;99.90
46890;DHT22;32625;51.080;16.970;2022-12-05T18:19:16;4.80;99.90
46890;DHT22;32625;51.080;16.970;2022-12-05T18:21:44;4.90;99.90
46890;DHT22;32625;51.080;16.970;2022-12-05T18:24:12;4.90;99.90
46890;DHT22;32625;51.080;16.970;2022-12-05T18:26:39;4.80;99.90
46890;DHT22;32625;51.080;16.970;2022-12-05T18:29:06;4.80;99.90
46890;DHT22;32625;51.080;16.970;2022-12-05T18:31:33;4.80;99.90
46890;DHT22;32625;51.080;16.970;2022-12-05T18:34:01;4.90;99.90
46890;DHT22;32625;51.080;16.970;2022-12-05T18:36:28;4.90;99.90
46890;DHT22;32625;51.080;16.970;2022-12-05T18:38:55;4.90;99.90
46890;DHT22;32625;51.080;16.970;2022-12-05T18:41:24;4.90;99.90
46890;DHT22;32625;51.080;16.970;2022-12-05T18:43:53;4.80;99.90
46890;DHT22;32625;51.080;16.970;2022-12-05T18:46:24;4.80;99.90
46890;DHT22;32625;51.080;16.970;2022-12-05T18:48:51;4.80;99.90
46890;DHT22;32625;51.080;16.970;2022-12-05T18:51:20;4.90;99.90
46890;DHT22;32625;51.080;16.970;2022-12-05T18:53:49;4.80;99.90
46890;DHT22;32625;51.080;16.970;2022-12-05T18:56:23;4.80;99.90
46890;DHT22;32625;51.080;16.970;2022-12-05T18:58:57;4.80;99.90
46890;DHT22;32625;51.080;16.970;2022-12-05T19:01:26;4.80;99.90
46890;DHT22;32625;51.080;16.970;2022-12-05T19:03:57;4.90;99.90
46890;DHT22;32625;51.080;16.970;2022-12-05T19:06:28;4.90;99.90
46890;DHT22;32625;51.080;16.970;2022-12-05T19:08:58;4.80;99.90
46890;DHT22;32625;51.080;16.970;2022-12-05T19:11:27;4.80;99.90
46890;DHT22;32625;51.080;16.970;2022-12-05T19:14:01;4.80;99.90
46890;DHT22;32625;51.080;16.970;2022-12-05T19:16:31;4.80;99.90
46890;DHT22;32625;51.080;16.970;2022-12-05T19:19:00;4.80;99.90
46890;DHT22;32625;51.080;16.970;2022-12-05T19:21:29;4.80;99.90
46890;DHT22;32625;51.080;16.970;2022-12-05T19:23:56;4.80;99.90
46890;DHT22;32625;51.080;16.970;2022-12-05T19:26:24;4.80;99.90
46890;DHT22;32625;51.080;16.970;2022-12-05T19:28:52;4.80;99.90
46890;DHT22;32625;51.080;16.970;2022-12-05T19:31:21;4.80;99.90